Time;durP1;ratioP1;P1;durP2;ratioP2;P2;SDS_P1;SDS_P2;PMS_P1;PMS_P2;Temp;Humidity;BMP_temperature;BMP_pressure;BME280_temperature;BME280_humidity;BME280_pressure;Samples;Min_cycle;Max_cycle;Signal;HPM_P1;HPM_P2
2023/02/27 00:00:37;;;;;;;17.10;8.50;;;;;;;-0.48;100.00;102962.53;2616772;36;20043;-53
2023/02/27 00:03:06;;;;;;;18.80;8.23;;;;;;;-0.44;100.00;102962.47;2615913;36;20034;-54
2023/02/27 00:05:34;;;;;;;18.05;8.95;;;;;;;-0.32;100.00;102960.59;2616351;36;20111;-56
2023/02/27 00:08:05;;;;;;;17.70;8.32;;;;;;;-0.29;100.00;102966.75;2616498;36;20042;-55
2023/02/27 00:10:33;;;;;;;17.65;7.68;;;;;;;-0.27;100.00;102964.09;2616308;31;20022;-53
2023/02/27 00:13:01;;;;;;;19.60;8.38;;;;;;;-0.31;100.00;102970.28;2616819;36;20431;-52
2023/02/27 00:15:31;;;;;;;16.52;7.97;;;;;;;-0.34;100.00;102971.19;2616517;36;20034;-54
2023/02/27 00:17:59;;;;;;;22.77;8.57;;;;;;;-0.28;100.00;102967.63;2615581;36;20122;-55
2023/02/27 00:20:28;;;;;;;15.35;7.53;;;;;;;-0.23;100.00;102963.19;2615843;36;20034;-59
2023/02/27 00:22:56;;;;;;;16.00;7.60;;;;;;;-0.23;100.00;102965.81;2617066;36;20518;-51
2023/02/27 00:25:27;;;;;;;16.92;7.60;;;;;;;-0.12;100.00;102953.34;2616081;36;20038;-53
2023/02/27 00:27:56;;;;;;;17.70;7.95;;;;;;;-0.10;100.00;102958.66;2616375;36;20033;-53
2023/02/27 00:30:25;;;;;;;19.83;7.95;;;;;;;-0.11;100.00;102955.09;2615780;36;20042;-58
2023/02/27 00:32:53;;;;;;;16.23;7.32;;;;;;;-0.15;100.00;102963.97;2614980;36;20033;-56
2023/02/27 00:35:22;;;;;;;17.97;7.10;;;;;;;-0.08;100.00;102963.00;2616082;36;20038;-54
2023/02/27 00:37:51;;;;;;;19.85;7.78;;;;;;;-0.02;100.00;102955.00;2616249;36;20035;-51
2023/02/27 00:40:19;;;;;;;14.65;7.22;;;;;;;-0.06;100.00;102953.31;2615987;31;20107;-55
2023/02/27 00:42:50;;;;;;;15.98;5.95;;;;;;;-0.03;100.00;102947.06;2616001;36;20034;-58
2023/02/27 00:45:19;;;;;;;13.07;5.75;;;;;;;-0.03;100.00;102947.06;2616258;36;20034;-58
2023/02/27 00:47:47;;;;;;;16.52;6.07;;;;;;;-0.12;100.00;102953.34;2615751;36;20061;-58
2023/02/27 00:50:16;;;;;;;10.75;5.55;;;;;;;-0.26;100.00;102949.97;2615954;36;20535;-59
2023/02/27 00:52:44;;;;;;;12.07;5.50;;;;;;;-0.24;100.00;102948.19;2616050;36;20540;-57
2023/02/27 00:55:13;;;;;;;11.52;5.65;;;;;;;-0.44;100.00;102946.59;2615957;36;20038;-57
2023/02/27 00:57:41;;;;;;;11.77;5.30;;;;;;;-0.40;100.00;102945.69;2616155;36;20039;-55
2023/02/27 01:00:14;;;;;;;12.80;5.53;;;;;;;-0.56;100.00;102936.13;2616195;36;20389;-51
2023/02/27 01:02:42;;;;;;;9.57;5.35;;;;;;;-0.70;100.00;102944.16;2616145;31;20074;-56
2023/02/27 01:05:11;;;;;;;14.05;5.32;;;;;;;-0.90;100.00;102936.38;2615776;36;20038;-55
2023/02/27 01:07:40;;;;;;;;;;;;;;;-0.87;100.00;102952.22;2616498;36;20542;-50
2023/02/27 01:10:10;;;;;;;12.70;6.30;;;;;;;-0.91;100.00;102950.50;2615723;36;19954;-55
2023/02/27 01:12:38;;;;;;;13.07;5.18;;;;;;;-0.93;100.00;102946.97;2614729;36;20038;-60
2023/02/27 01:15:08;;;;;;;10.83;4.97;;;;;;;-1.00;100.00;102945.25;2615097;36;20041;-57
2023/02/27 01:17:39;;;;;;;9.57;4.85;;;;;;;-1.11;100.00;102947.97;2616416;36;20474;-57
2023/02/27 01:20:11;;;;;;;13.25;4.57;;;;;;;-1.20;100.00;102943.63;2616088;36;20047;-55
2023/02/27 01:22:40;;;;;;;9.82;4.15;;;;;;;-1.14;100.00;102940.06;2614021;31;20650;-55
2023/02/27 01:25:09;;;;;;;9.75;4.75;;;;;;;-1.21;100.00;102955.06;2616221;36;20039;-57
2023/02/27 01:27:38;;;;;;;12.15;5.40;;;;;;;-1.23;100.00;102943.66;2615076;36;20081;-58
2023/02/27 01:30:10;;;;;;;6.55;4.45;;;;;;;-1.21;100.00;102946.28;2615902;31;20058;-55
2023/02/27 01:32:41;;;;;;;9.50;4.28;;;;;;;-1.31;100.00;102950.72;2613948;36;20670;-52
2023/02/27 01:35:10;;;;;;;7.32;4.47;;;;;;;-1.35;100.00;102949.88;2614389;36;20042;-50
2023/02/27 01:37:38;;;;;;;9.05;4.35;;;;;;;-1.39;100.00;102947.25;2613867;36;20041;-51
2023/02/27 01:40:08;;;;;;;8.67;4.10;;;;;;;-1.38;100.00;102943.72;2614364;36;20039;-52
2023/02/27 01:42:37;;;;;;;7.43;3.97;;;;;;;-1.46;100.00;102942.00;2614316;36;20041;-53
2023/02/27 01:45:28;;;;;;;6.83;3.80;;;;;;;-1.51;100.00;102935.00;2613954;36;20035;-55
2023/02/27 01:48:15;;;;;;;5.50;3.60;;;;;;;-1.55;100.00;102942.03;2614433;36;20056;-53
2023/02/27 01:50:49;;;;;;;10.40;3.53;;;;;;;-1.58;100.00;102936.75;2615109;36;20042;-49
2023/02/27 01:53:23;;;;;;;8.48;3.72;;;;;;;-1.63;100.00;102941.19;2614675;36;20180;-51
2023/02/27 01:55:52;;;;;;;11.65;4.40;;;;;;;-1.62;100.00;102933.28;2614675;36;20038;-48
2023/02/27 01:58:21;;;;;;;8.90;4.18;;;;;;;-1.61;100.00;102934.13;2613387;36;20038;-53
2023/02/27 02:00:50;;;;;;;10.30;3.40;;;;;;;-1.63;100.00;102934.16;2615735;36;20027;-55
2023/02/27 02:03:31;;;;;;;7.57;4.10;;;;;;;-1.63;100.00;102936.78;2614951;36;20407;-55
2023/02/27 02:06:04;;;;;;;9.07;4.68;;;;;;;-1.63;100.00;102938.56;2614200;36;20420;-57
2023/02/27 02:08:36;;;;;;;10.45;3.60;;;;;;;-1.67;100.00;102942.09;2612800;31;20034;-51
2023/02/27 02:11:05;;;;;;;6.75;3.95;;;;;;;-1.62;100.00;102942.94;2615081;36;20038;-56
2023/02/27 02:13:34;;;;;;;7.40;4.13;;;;;;;-1.57;100.00;102942.94;2614067;36;20137;-48
2023/02/27 02:16:20;;;;;;;8.18;3.92;;;;;;;-1.60;100.00;102943.81;2613404;36;20042;-52
2023/02/27 02:19:06;;;;;;;7.22;3.17;;;;;;;-1.71;100.00;102945.63;2613688;36;20030;-55
2023/02/27 02:22:16;;;;;;;8.48;3.95;;;;;;;-1.78;100.00;102940.38;2614749;36;20045;-57
2023/02/27 02:25:14;;;;;;;6.90;3.47;;;;;;;-1.81;100.00;102943.03;2615141;36;20531;-57
2023/02/27 02:28:03;;;;;;;7.00;3.60;;;;;;;-1.81;100.00;102940.38;2615540;31;20026;-52
2023/02/27 02:30:49;;;;;;;;;;;;;;;-1.81;100.00;102932.47;2614661;31;20042;-54
2023/02/27 02:33:50;;;;;;;6.32;3.88;;;;;;;-1.92;100.00;102938.66;2614055;36;20335;-53
2023/02/27 02:36:57;;;;;;;7.05;3.83;;;;;;;-2.02;100.00;102951.84;2614957;36;20034;-56
2023/02/27 02:40:05;;;;;;;6.82;4.10;;;;;;;-2.04;100.00;102942.22;2615728;36;20555;-60
2023/02/27 02:42:38;;;;;;;9.27;3.67;;;;;;;-2.06;100.00;102939.59;2613956;31;20069;-55
2023/02/27 02:45:17;;;;;;;6.88;3.70;;;;;;;-1.99;100.00;102948.34;2613743;36;20035;-60
2023/02/27 02:47:57;;;;;;;6.55;3.30;;;;;;;-2.01;100.00;102942.19;2612191;36;20041;-58
2023/02/27 02:50:31;;;;;;;7.47;3.78;;;;;;;-1.99;100.00;102948.34;2614469;36;20030;-54
2023/02/27 02:53:07;;;;;;;7.57;3.60;;;;;;;-2.07;100.00;102944.88;2613981;36;20034;-53
2023/02/27 02:55:44;;;;;;;6.03;3.25;;;;;;;-2.12;100.00;102945.75;2614168;36;20057;-57
2023/02/27 02:58:18;;;;;;;5.97;3.22;;;;;;;-2.17;100.00;102951.91;2613680;36;20652;-51
2023/02/27 03:00:52;;;;;;;5.90;3.20;;;;;;;-2.30;100.00;102953.66;2614850;31;20413;-55
2023/02/27 03:03:26;;;;;;;6.70;3.45;;;;;;;-2.32;100.00;102958.09;2613298;31;20031;-51
2023/02/27 03:06:00;;;;;;;6.05;3.22;;;;;;;-2.38;100.00;102955.47;2614059;36;20042;-54
2023/02/27 03:08:33;;;;;;;9.23;3.25;;;;;;;-2.36;100.00;102954.56;2612573;36;20042;-53
2023/02/27 03:11:07;;;;;;;5.72;2.88;;;;;;;-2.31;100.00;102967.75;2614062;36;20053;-58
2023/02/27 03:13:39;;;;;;;4.53;2.70;;;;;;;-2.23;100.00;102965.09;2614766;36;20464;-54
2023/02/27 03:16:13;;;;;;;5.93;2.97;;;;;;;-2.19;100.00;102951.91;2612272;36;20038;-55
2023/02/27 03:18:48;;;;;;;9.25;3.40;;;;;;;-2.20;100.00;102946.63;2614084;36;20039;-55
2023/02/27 03:21:21;;;;;;;7.40;3.28;;;;;;;-2.26;100.00;102957.19;2613519;31;20536;-57
2023/02/27 03:23:53;;;;;;;5.60;3.58;;;;;;;-2.24;100.00;102940.47;2613265;36;20034;-52
2023/02/27 03:26:31;;;;;;;7.93;2.83;;;;;;;-2.31;100.00;102946.66;2613662;36;20026;-54
2023/02/27 03:29:03;;;;;;;5.45;3.25;;;;;;;-2.29;100.00;102944.88;2613708;36;20031;-52
2023/02/27 03:31:39;;;;;;;6.28;2.88;;;;;;;-2.30;100.00;102943.13;2615265;36;20034;-55
2023/02/27 03:34:18;;;;;;;6.00;3.13;;;;;;;-2.33;100.00;102951.91;2614932;36;20042;-58
2023/02/27 03:36:53;;;;;;;9.18;3.22;;;;;;;-2.40;100.00;102951.91;2613207;36;20034;-56
2023/02/27 03:39:29;;;;;;;5.00;2.95;;;;;;;-2.37;100.00;102951.91;2615098;36;20026;-54
2023/02/27 03:42:09;;;;;;;6.50;3.28;;;;;;;-2.41;100.00;102948.41;2617467;36;20502;-52
2023/02/27 03:44:46;;;;;;;10.38;3.45;;;;;;;-2.38;100.00;102955.47;2616076;36;20038;-56
2023/02/27 03:47:18;;;;;;;4.90;2.85;;;;;;;-2.42;100.00;102951.06;2616718;36;20042;-58
2023/02/27 03:49:49;;;;;;;4.15;2.75;;;;;;;-2.43;100.00;102947.53;2616024;36;20035;-53
2023/02/27 03:52:18;;;;;;;7.45;3.05;;;;;;;-2.46;100.00;102942.25;2616542;31;20062;-53
2023/02/27 03:54:54;;;;;;;10.70;3.15;;;;;;;-2.52;100.00;102950.16;2616278;36;20022;-60
2023/02/27 03:57:25;;;;;;;5.72;2.60;;;;;;;-2.45;100.00;102951.06;2616333;36;20653;-53
2023/02/27 03:59:54;;;;;;;7.22;3.03;;;;;;;-2.49;100.00;102956.34;2616663;36;20039;-57
2023/02/27 04:02:23;;;;;;;5.85;3.05;;;;;;;-2.47;100.00;102957.22;2615329;36;20125;-53
2023/02/27 04:04:51;;;;;;;;;;;;;;;-2.48;100.00;102952.81;2616886;36;20042;-58
2023/02/27 04:07:28;;;;;;;5.90;3.05;;;;;;;-2.49;100.00;102955.44;2616290;36;19938;-58
2023/02/27 04:10:15;;;;;;;6.53;3.17;;;;;;;-2.47;100.00;102959.84;2615546;36;20046;-59
2023/02/27 04:13:04;;;;;;;10.68;3.10;;;;;;;-2.45;100.00;102958.97;2614357;36;20037;-56
2023/02/27 04:15:48;;;;;;;6.75;3.33;;;;;;;-2.50;100.00;102965.13;2614587;36;20045;-53
2023/02/27 04:18:23;;;;;;;7.68;3.13;;;;;;;-2.57;100.00;102973.03;2614622;31;20427;-56
2023/02/27 04:20:56;;;;;;;4.75;2.63;;;;;;;-2.57;100.00;102973.03;2615361;36;20042;-49
2023/02/27 04:23:35;;;;;;;6.00;3.13;;;;;;;-2.58;100.00;102969.50;2614867;31;20134;-52
2023/02/27 04:26:21;;;;;;;6.20;2.70;;;;;;;-2.65;100.00;102979.19;2614340;36;20556;-58
2023/02/27 04:29:01;;;;;;;4.00;2.60;;;;;;;-2.65;100.00;102986.19;2614886;31;20031;-56
2023/02/27 04:31:34;;;;;;;5.35;2.63;;;;;;;-2.80;100.00;102986.19;2616087;31;20026;-55
2023/02/27 04:34:08;;;;;;;5.13;2.92;;;;;;;-2.86;100.00;102981.78;2613017;36;20078;-52
2023/02/27 04:36:41;;;;;;;8.85;2.78;;;;;;;-2.85;100.00;102981.78;2614388;36;20038;-53
2023/02/27 04:39:14;;;;;;;9.35;2.85;;;;;;;-2.85;100.00;102987.06;2614499;31;20061;-55
2023/02/27 04:41:48;;;;;;;5.72;2.80;;;;;;;-2.83;100.00;102987.94;2613802;36;20035;-55
2023/02/27 04:44:21;;;;;;;6.90;2.83;;;;;;;-2.79;100.00;102983.56;2614818;31;20034;-57
2023/02/27 04:46:51;;;;;;;5.03;2.42;;;;;;;-2.78;100.00;102984.41;2614079;31;20535;-52
2023/02/27 04:49:24;;;;;;;7.75;2.70;;;;;;;-2.92;100.00;102987.91;2615457;36;20026;-56
2023/02/27 04:51:58;;;;;;;6.25;2.67;;;;;;;-2.98;100.00;102992.31;2614422;36;20197;-54
2023/02/27 04:54:32;;;;;;;8.10;2.97;;;;;;;-3.04;100.00;102985.25;2614450;36;20116;-51
2023/02/27 04:57:04;;;;;;;5.65;2.38;;;;;;;-3.03;100.00;102995.81;2614826;36;20547;-55
2023/02/27 04:59:41;;;;;;;5.68;3.22;;;;;;;-2.97;100.00;102997.56;2613735;36;20057;-57
2023/02/27 05:02:15;;;;;;;5.55;2.83;;;;;;;-3.02;100.00;102999.31;2614846;36;20045;-55
2023/02/27 05:04:46;;;;;;;6.43;2.65;;;;;;;-2.96;100.00;103001.09;2614646;36;20622;-56
2023/02/27 05:07:20;;;;;;;6.80;2.67;;;;;;;-2.97;100.00;103005.47;2615265;36;20427;-56
2023/02/27 05:09:52;;;;;;;7.30;2.95;;;;;;;-2.95;100.00;103003.72;2613939;36;20030;-55
2023/02/27 05:12:25;;;;;;;8.43;2.70;;;;;;;-3.06;100.00;103010.69;2614156;36;20109;-58
2023/02/27 05:15:02;;;;;;;4.55;2.60;;;;;;;-3.11;100.00;103010.69;2615099;36;20029;-53
2023/02/27 05:17:36;;;;;;;5.22;2.80;;;;;;;-3.12;100.00;103013.31;2614431;36;20055;-57
2023/02/27 05:20:06;;;;;;;6.65;2.97;;;;;;;-3.24;100.00;103007.16;2615124;36;20038;-56
2023/02/27 05:22:44;;;;;;;9.13;3.17;;;;;;;-3.24;100.00;103009.78;2615235;36;20117;-54
2023/02/27 05:25:17;;;;;;;7.40;3.25;;;;;;;-3.36;100.00;103008.00;2615002;36;20035;-57
2023/02/27 05:27:48;;;;;;;5.78;3.10;;;;;;;-3.40;100.00;103010.56;2613195;36;20049;-53
2023/02/27 05:30:28;;;;;;;6.03;2.78;;;;;;;-3.36;100.00;103013.25;2612204;31;20039;-54
2023/02/27 05:33:01;;;;;;;5.90;2.70;;;;;;;-3.29;100.00;103014.16;2612631;36;20401;-54
2023/02/27 05:35:34;;;;;;;5.35;2.95;;;;;;;-3.22;100.00;103015.06;2615433;36;20038;-56
2023/02/27 05:38:08;;;;;;;5.35;2.78;;;;;;;-3.25;100.00;103025.59;2615266;36;20042;-58
2023/02/27 05:40:45;;;;;;;8.73;3.47;;;;;;;-3.20;100.00;103021.22;2615286;36;20031;-53
2023/02/27 05:43:20;;;;;;;5.57;3.20;;;;;;;-3.19;100.00;103026.47;2615629;36;20073;-58
2023/02/27 05:45:54;;;;;;;7.82;3.63;;;;;;;-3.27;100.00;103027.31;2617256;31;20539;-51
2023/02/27 05:48:27;;;;;;;6.85;3.00;;;;;;;-3.27;100.00;103019.41;2614876;36;20038;-51
2023/02/27 05:50:57;;;;;;;6.13;3.67;;;;;;;-3.25;100.00;103028.22;2615521;36;20034;-51
2023/02/27 05:53:31;;;;;;;7.60;3.75;;;;;;;-3.39;100.00;103031.66;2614442;36;20046;-58
2023/02/27 05:56:03;;;;;;;8.27;3.70;;;;;;;-3.38;100.00;103032.56;2612574;36;20034;-54
2023/02/27 05:58:37;;;;;;;6.75;3.90;;;;;;;-3.39;100.00;103034.28;2612542;36;20041;-53
2023/02/27 06:01:10;;;;;;;9.98;3.90;;;;;;;-3.37;100.00;103032.56;2613226;36;20544;-56
2023/02/27 06:03:41;;;;;;;5.90;3.58;;;;;;;-3.36;100.00;103036.97;2612935;36;20034;-52
2023/02/27 06:06:13;;;;;;;6.25;3.40;;;;;;;-3.46;100.00;103034.25;2613543;36;20673;-55
2023/02/27 06:08:41;;;;;;;7.75;3.63;;;;;;;-3.47;100.00;103037.78;2613321;36;20042;-54
2023/02/27 06:11:10;;;;;;;7.75;3.63;;;;;;;-3.43;100.00;103039.53;2614231;36;20061;-50
2023/02/27 06:13:38;;;;;;;13.75;4.55;;;;;;;-3.44;100.00;103046.56;2614327;36;20045;-55
2023/02/27 06:16:11;;;;;;;8.15;3.80;;;;;;;-3.41;100.00;103049.19;2613312;36;20038;-54
2023/02/27 06:18:40;;;;;;;9.23;3.53;;;;;;;-3.43;100.00;103057.97;2613545;36;20030;-51
2023/02/27 06:21:08;;;;;;;9.23;3.90;;;;;;;-3.46;100.00;103060.59;2614952;36;20061;-55
2023/02/27 06:23:36;;;;;;;9.18;4.00;;;;;;;-3.46;100.00;103063.22;2615692;36;20570;-55
2023/02/27 06:26:05;;;;;;;9.02;4.18;;;;;;;-3.41;100.00;103072.91;2615152;36;20038;-54
2023/02/27 06:28:33;;;;;;;7.45;3.78;;;;;;;-3.40;100.00;103065.88;2615496;36;20543;-54
2023/02/27 06:31:02;;;;;;;7.30;3.92;;;;;;;-3.46;100.00;103073.75;2613494;36;20044;-53
2023/02/27 06:33:32;;;;;;;13.05;5.30;;;;;;;-3.44;100.00;103069.38;2613701;31;20062;-52
2023/02/27 06:36:01;;;;;;;12.55;5.32;;;;;;;-3.46;100.00;103076.38;2613577;31;20038;-56
2023/02/27 06:38:30;;;;;;;14.82;5.10;;;;;;;-3.41;100.00;103079.94;2615106;31;20050;-53
2023/02/27 06:40:58;;;;;;;10.68;5.53;;;;;;;-3.40;100.00;103071.13;2612735;36;20624;-57
2023/02/27 06:43:27;;;;;;;9.52;5.00;;;;;;;-3.31;100.00;103070.31;2613747;36;20066;-56
2023/02/27 06:45:56;;;;;;;10.68;4.97;;;;;;;-3.37;100.00;103074.69;2613507;36;20034;-57
2023/02/27 06:48:24;;;;;;;;;;;;;;;-3.34;100.00;103068.56;2611669;36;20048;-55
2023/02/27 06:50:57;;;;;;;11.40;5.88;;;;;;;-3.33;100.00;103066.78;2612626;36;20344;-51
2023/02/27 06:53:26;;;;;;;11.45;5.90;;;;;;;-3.39;100.00;103071.16;2612351;31;20035;-57
2023/02/27 06:55:54;;;;;;;9.68;6.13;;;;;;;-3.30;100.00;103078.22;2613802;36;20069;-50
2023/02/27 06:58:23;;;;;;;9.50;5.07;;;;;;;-3.25;100.00;103073.88;2613057;31;20031;-57
2023/02/27 07:00:52;;;;;;;13.52;5.85;;;;;;;-3.28;100.00;103081.75;2614582;31;20038;-59
2023/02/27 07:03:20;;;;;;;8.45;5.88;;;;;;;-3.30;100.00;103075.56;2613705;31;20045;-53
2023/02/27 07:05:49;;;;;;;13.90;5.10;;;;;;;-3.21;100.00;103080.00;2614271;36;20038;-53
2023/02/27 07:08:20;;;;;;;10.07;5.17;;;;;;;-3.22;100.00;103073.88;2612913;36;20038;-55
2023/02/27 07:10:48;;;;;;;15.07;5.65;;;;;;;-3.13;100.00;103080.94;2613382;36;20042;-50
2023/02/27 07:13:17;;;;;;;11.20;5.13;;;;;;;-3.11;100.00;103083.56;2615747;36;20039;-57
2023/02/27 07:15:45;;;;;;;8.75;5.03;;;;;;;-3.04;100.00;103085.38;2616430;36;20038;-56
2023/02/27 07:18:14;;;;;;;9.80;4.90;;;;;;;-2.95;100.00;103095.06;2615705;36;20038;-50
2023/02/27 07:20:42;;;;;;;8.85;4.53;;;;;;;-2.84;100.00;103090.72;2616439;36;20682;-57
2023/02/27 07:23:11;;;;;;;11.73;5.72;;;;;;;-2.78;100.00;103088.09;2616298;36;20531;-53
2023/02/27 07:25:42;;;;;;;8.02;4.72;;;;;;;-2.56;100.00;103089.03;2616417;31;20061;-53
2023/02/27 07:28:10;;;;;;;11.75;5.63;;;;;;;-2.43;100.00;103083.78;2616240;36;20038;-51
2023/02/27 07:30:38;;;;;;;10.48;5.60;;;;;;;-2.37;100.00;103091.69;2616534;36;20046;-49
2023/02/27 07:33:07;;;;;;;12.93;5.93;;;;;;;-1.99;100.00;103085.56;2616123;36;20035;-60
2023/02/27 07:35:36;;;;;;;10.20;5.82;;;;;;;-1.89;100.00;103089.97;2616424;36;20544;-56
2023/02/27 07:38:05;;;;;;;11.27;5.82;;;;;;;-1.78;100.00;103093.47;2616299;36;20038;-58
2023/02/27 07:40:33;;;;;;;11.68;5.88;;;;;;;-1.37;100.00;103096.94;2616188;36;20034;-54
2023/02/27 07:43:04;;;;;;;11.65;5.50;;;;;;;-1.41;100.00;103103.97;2615769;36;20045;-49
2023/02/27 07:45:32;;;;;;;9.98;5.47;;;;;;;-1.25;100.00;103098.66;2616521;36;20067;-51
2023/02/27 07:48:01;;;;;;;12.13;5.55;;;;;;;-1.28;100.00;103103.94;2615981;31;20035;-54
2023/02/27 07:50:29;;;;;;;10.05;5.50;;;;;;;-1.30;100.00;103108.34;2618176;31;20443;-55
2023/02/27 07:53:04;;;;;;;11.35;5.38;;;;;;;-1.21;100.00;103104.81;2616859;54;20043;-53
2023/02/27 07:55:32;;;;;;;9.43;5.10;;;;;;;-0.99;100.00;103108.25;2615720;36;20034;-56
2023/02/27 07:58:03;;;;;;;8.27;4.93;;;;;;;-0.79;100.00;103106.41;2616644;31;20061;-54
2023/02/27 08:00:31;;;;;;;8.93;5.07;;;;;;;-0.75;100.00;103117.84;2614751;36;20044;-56
2023/02/27 08:03:00;;;;;;;12.20;5.80;;;;;;;-0.63;100.00;103115.16;2615714;36;20432;-55
2023/02/27 08:05:36;;;;;;;7.88;5.40;;;;;;;-0.39;100.00;103116.75;2617176;36;20034;-56
2023/02/27 08:08:04;;;;;;;11.05;4.97;;;;;;;-0.24;100.00;103123.72;2615603;36;20030;-50
2023/02/27 08:10:33;;;;;;;10.30;4.63;;;;;;;-0.10;100.00;103123.63;2615243;36;20038;-53
2023/02/27 08:13:04;;;;;;;9.98;5.10;;;;;;;0.01;100.00;103127.97;2615515;36;20031;-57
2023/02/27 08:15:32;;;;;;;10.48;5.18;;;;;;;0.10;100.00;103119.94;2616436;36;20073;-52
2023/02/27 08:18:01;;;;;;;6.75;4.82;;;;;;;0.18;100.00;103120.78;2615849;36;20114;-55
2023/02/27 08:20:30;;;;;;;10.15;5.13;;;;;;;0.47;100.00;103111.66;2616366;36;20034;-53
2023/02/27 08:22:59;;;;;;;;;;;;;;;0.73;100.00;103113.16;2616938;36;20431;-54
2023/02/27 08:25:27;;;;;;;7.57;4.32;;;;;;;0.67;100.00;103107.03;2616178;36;20444;-57
2023/02/27 08:27:55;;;;;;;10.45;4.15;;;;;;;0.63;100.00;103112.38;2616458;36;20416;-56
2023/02/27 08:30:26;;;;;;;15.65;4.78;;;;;;;0.82;100.00;103119.22;2616107;36;20038;-56
2023/02/27 08:32:55;;;;;;;10.25;4.20;;;;;;;0.92;100.00;103113.84;2614640;31;20034;-57
2023/02/27 08:35:23;;;;;;;6.70;3.57;;;;;;;0.97;100.00;103118.19;2616508;36;20031;-58
2023/02/27 08:37:52;;;;;;;8.05;3.55;;;;;;;0.98;100.00;103119.06;2616552;31;20038;-57
2023/02/27 08:40:20;;;;;;;8.15;4.32;;;;;;;1.11;100.00;103125.09;2615722;36;20026;-55
2023/02/27 08:42:50;;;;;;;7.20;3.47;;;;;;;1.44;100.00;103118.47;2616513;36;20035;-56
2023/02/27 08:45:19;;;;;;;8.95;3.50;;;;;;;1.31;100.00;103128.38;2616434;36;20820;-55
2023/02/27 08:47:49;;;;;;;5.45;2.55;;;;;;;1.34;100.00;103133.66;2615993;36;20044;-58
2023/02/27 08:50:18;;;;;;;8.52;3.25;;;;;;;1.40;100.00;103144.16;2616241;36;20034;-52
2023/02/27 08:52:48;;;;;;;11.32;3.20;;;;;;;1.60;100.00;103136.84;2616993;31;20038;-56
2023/02/27 08:55:16;;;;;;;;;;;;;;;1.84;100.00;103138.25;2615862;36;20149;-56
2023/02/27 08:57:44;;;;;;;6.63;2.78;;;;;;;1.88;100.00;103137.31;2616269;36;19962;-54
2023/02/27 09:00:15;;;;;;;6.50;2.88;;;;;;;1.90;100.00;103138.16;2616219;36;20567;-57
2023/02/27 09:02:44;;;;;;;6.47;2.75;;;;;;;1.98;100.00;103136.25;2615911;36;20113;-56
2023/02/27 09:05:15;;;;;;;6.57;2.50;;;;;;;2.00;100.00;103138.88;2616491;36;20057;-58
2023/02/27 09:07:43;;;;;;;4.60;2.63;;;;;;;2.29;100.00;103130.44;2616998;31;20451;-53
2023/02/27 09:10:13;;;;;;;5.18;2.72;;;;;;;2.29;100.00;103130.44;2615397;36;20042;-57
2023/02/27 09:12:41;;;;;;;6.40;2.53;;;;;;;2.41;100.00;103135.53;2616262;36;20030;-56
2023/02/27 09:15:12;;;;;;;7.18;2.80;;;;;;;2.59;100.00;103134.34;2616005;36;20039;-53
2023/02/27 09:17:40;;;;;;;10.32;2.28;;;;;;;2.72;100.00;103128.78;2615404;36;20030;-53
2023/02/27 09:20:11;;;;;;;4.33;2.27;;;;;;;2.78;100.00;103140.19;2617138;31;20038;-54
2023/02/27 09:22:42;;;;;;;11.52;3.17;;;;;;;2.74;100.00;103143.81;2616624;36;20284;-50
2023/02/27 09:25:11;;;;;;;6.05;2.47;;;;;;;2.93;100.00;103140.78;2615763;36;20113;-55
2023/02/27 09:27:39;;;;;;;7.15;2.30;;;;;;;3.09;100.00;103138.69;2616079;36;20566;-52
2023/02/27 09:30:09;;;;;;;8.85;2.65;;;;;;;3.20;100.00;103141.16;2616337;31;20022;-52
2023/02/27 09:32:38;;;;;;;9.05;3.13;;;;;;;3.25;100.00;103144.56;2616155;36;20570;-52
2023/02/27 09:35:08;;;;;;;5.75;2.30;;;;;;;3.28;100.00;103150.72;2616673;31;20031;-55
2023/02/27 09:37:36;;;;;;;7.47;2.63;;;;;;;3.44;100.00;103151.25;2616550;36;20031;-54
2023/02/27 09:40:08;;;;;;;8.27;2.63;;;;;;;3.45;100.00;103147.69;2615230;36;20562;-52
2023/02/27 09:42:44;;;;;;;8.55;2.42;;;;;;;3.61;100.00;103152.69;2616775;31;20049;-55
2023/02/27 09:45:22;;;;;;;6.75;2.63;;;;;;;3.55;100.00;103153.69;2615950;36;20030;-56
2023/02/27 09:47:54;;;;;;;5.13;2.30;;;;;;;3.53;100.00;103154.63;2612539;36;20038;-58
2023/02/27 09:50:35;;;;;;;9.73;3.00;;;;;;;3.58;100.00;103148.31;2611908;36;20038;-56
2023/02/27 09:53:05;;;;;;;7.18;2.63;;;;;;;3.72;100.00;103166.63;2612855;36;20068;-58
2023/02/27 09:55:40;;;;;;;5.78;2.83;;;;;;;4.03;100.00;103166.81;2613551;36;20038;-56
2023/02/27 09:58:26;;;;;;;10.07;3.10;;;;;;;4.11;100.00;103163.94;2613602;36;20126;-53
2023/02/27 10:01:01;;;;;;;8.85;2.22;;;;;;;4.32;100.00;103167.00;2613167;36;21004;-59
2023/02/27 10:03:46;;;;;;;5.47;1.90;;;;;;;4.51;100.00;103165.59;2613489;36;20195;-55
2023/02/27 10:06:24;;;;;;;3.17;1.52;;;;;;;4.50;100.00;103170.97;2613117;36;20038;-54
2023/02/27 10:09:05;;;;;;;6.32;1.80;;;;;;;4.79;100.00;103167.53;2613835;36;20057;-54
2023/02/27 10:11:54;;;;;;;6.93;1.85;;;;;;;4.67;100.00;103151.88;2613690;36;20044;-53
2023/02/27 10:14:28;;;;;;;;;;;;;;;4.75;100.00;103152.53;2614158;36;20042;-55
2023/02/27 10:16:59;;;;;;;5.80;2.42;;;;;;;4.71;100.00;103148.19;2613130;36;19998;-56
2023/02/27 10:19:33;;;;;;;6.57;1.90;;;;;;;4.68;100.00;103153.59;2611743;36;20551;-59
2023/02/27 10:22:06;;;;;;;4.50;1.77;;;;;;;4.87;100.00;103153.97;2612987;31;20038;-57
2023/02/27 10:24:40;;;;;;;9.85;2.08;;;;;;;4.91;100.00;103144.97;2612318;36;20038;-57
2023/02/27 10:27:20;;;;;;;6.28;2.10;;;;;;;4.94;100.00;103138.69;2611760;36;22038;-57
2023/02/27 10:29:48;;;;;;;9.00;2.17;;;;;;;4.91;100.00;103135.16;2614203;36;20084;-56
2023/02/27 10:32:23;;;;;;;6.28;2.35;;;;;;;5.07;100.00;103137.41;2613634;36;20034;-56
2023/02/27 10:34:56;;;;;;;7.97;2.35;;;;;;;5.15;100.00;103143.38;2614819;36;20547;-57
2023/02/27 10:37:27;;;;;;;7.68;2.05;;;;;;;5.37;100.00;103142.75;2615100;36;20038;-57
2023/02/27 10:39:59;;;;;;;6.80;2.22;;;;;;;5.20;100.00;103136.13;2614540;36;20030;-52
2023/02/27 10:42:34;;;;;;;8.73;2.33;;;;;;;5.38;100.00;103144.53;2613816;31;20038;-56
2023/02/27 10:45:03;;;;;;;6.40;1.90;;;;;;;5.54;100.00;103134.25;2614734;31;20579;-54
2023/02/27 10:47:34;;;;;;;4.90;1.63;;;;;;;5.44;100.00;103139.84;2615023;36;20424;-54
2023/02/27 10:50:03;;;;;;;5.95;2.00;;;;;;;5.25;100.00;103144.88;2614930;36;20037;-54
2023/02/27 10:52:32;;;;;;;3.78;1.95;;;;;;;4.94;100.00;103136.00;2614133;36;20038;-56
2023/02/27 10:55:17;;;;;;;;;;;;;;;5.02;100.00;103125.97;2616062;31;20042;-58
2023/02/27 10:57:48;;;;;;;3.85;1.50;;;;;;;4.94;100.00;103136.00;2615411;31;19950;-55
2023/02/27 11:00:28;;;;;;;3.45;1.42;;;;;;;4.90;100.00;103128.09;2614829;36;20038;-57
2023/02/27 11:02:56;;;;;;;9.95;2.25;;;;;;;4.93;100.00;103119.09;2614511;36;20037;-58
2023/02/27 11:05:28;;;;;;;3.40;1.90;;;;;;;5.02;100.00;103120.63;2615413;36;20023;-54
2023/02/27 11:07:58;;;;;;;4.20;1.60;;;;;;;4.97;100.00;103115.44;2614416;36;20034;-52
2023/02/27 11:10:29;;;;;;;4.38;1.30;;;;;;;4.94;100.00;103112.84;2614823;36;20042;-52
2023/02/27 11:13:05;;;;;;;3.80;1.30;;;;;;;5.17;100.00;103117.53;2614815;36;20539;-58
2023/02/27 11:15:36;;;;;;;1.67;0.80;;;;;;;5.30;100.00;103104.69;2614822;36;20424;-51
2023/02/27 11:18:22;;;;;;;5.93;1.30;;;;;;;5.20;100.00;103106.75;2615795;31;20069;-55
2023/02/27 11:20:52;;;;;;;4.95;1.10;;;;;;;5.20;100.00;103103.22;2616110;36;20125;-55
2023/02/27 11:23:21;;;;;;;;;;;;;;;5.17;100.00;103092.66;2616374;36;20039;-56
2023/02/27 11:25:50;;;;;;;3.55;1.50;;;;;;;5.28;100.00;103093.19;2613923;36;19959;-54
2023/02/27 11:28:27;;;;;;;3.08;1.30;;;;;;;5.33;100.00;103096.59;2626474;31;20038;-58
2023/02/27 11:31:02;;;;;;;2.92;1.40;;;;;;;5.47;100.00;103087.28;2614279;36;20022;-50
2023/02/27 11:33:33;;;;;;;4.30;1.33;;;;;;;5.43;100.00;103079.38;2614198;36;20643;-54
2023/02/27 11:36:01;;;;;;;3.55;1.30;;;;;;;5.38;100.00;103080.44;2615276;36;20402;-55
2023/02/27 11:38:33;;;;;;;1.60;0.88;;;;;;;5.57;100.00;103076.25;2613899;36;20034;-53
2023/02/27 11:41:04;;;;;;;2.42;0.90;;;;;;;5.45;100.00;103079.31;2614075;36;20133;-58
2023/02/27 11:43:38;;;;;;;2.25;1.10;;;;;;;5.49;100.00;103072.06;2614796;36;20038;-57